createdAt,value
2022-11-29T00:02:46.460Z,2.45
2022-11-29T00:05:16.331Z,3.40
2022-11-29T00:12:43.397Z,3.22
2022-11-29T00:20:11.262Z,4.22
2022-11-29T00:22:41.275Z,3.77
2022-11-29T00:25:10.770Z,3.58
2022-11-29T00:27:40.196Z,3.62
2022-11-29T00:30:10.994Z,3.20
2022-11-29T00:32:40.563Z,3.47
2022-11-29T00:35:11.560Z,3.58
2022-11-29T00:37:40.981Z,3.65
2022-11-29T00:40:10.749Z,3.65
2022-11-29T00:42:40.266Z,3.65
2022-11-29T00:45:10.127Z,3.40
2022-11-29T00:47:39.761Z,3.27
2022-11-29T00:50:09.554Z,2.80
2022-11-29T00:52:38.974Z,2.92
2022-11-29T00:55:11.137Z,2.58
2022-11-29T00:57:40.555Z,2.60
2022-11-29T01:00:12.665Z,2.35
2022-11-29T01:02:42.138Z,2.90
2022-11-29T01:05:11.623Z,2.72
2022-11-29T01:07:41.153Z,2.05
2022-11-29T01:10:10.998Z,2.50
2022-11-29T01:12:41.645Z,2.40
2022-11-29T01:15:12.033Z,2.17
2022-11-29T01:17:41.782Z,2.80
2022-11-29T01:20:14.375Z,2.60
2022-11-29T01:27:43.708Z,2.15
2022-11-29T01:30:13.582Z,2.20
2022-11-29T01:35:11.658Z,2.00
2022-11-29T01:37:41.105Z,2.25
2022-11-29T01:40:10.766Z,2.75
2022-11-29T01:42:40.206Z,2.50
2022-11-29T01:45:15.518Z,2.40
2022-11-29T01:47:47.767Z,2.27
2022-11-29T01:50:18.443Z,2.22
2022-11-29T01:52:48.649Z,2.30
2022-11-29T01:55:18.906Z,2.50
2022-11-29T01:57:48.809Z,2.12
2022-11-29T02:00:20.299Z,2.10
2022-11-29T02:02:55.621Z,2.40
2022-11-29T02:05:27.575Z,2.05
2022-11-29T02:07:59.801Z,2.25
2022-11-29T02:13:44.641Z,1.90
2022-11-29T02:16:28.938Z,2.22
2022-11-29T02:19:04.114Z,1.72
2022-11-29T02:21:36.613Z,2.00
2022-11-29T02:24:33.049Z,2.37
2022-11-29T02:27:28.055Z,2.20
2022-11-29T02:30:23.246Z,1.90
2022-11-29T02:32:58.394Z,2.42
2022-11-29T02:35:30.951Z,1.95
2022-11-29T03:01:26.229Z,2.30
2022-11-29T03:04:04.900Z,1.52
2022-11-29T03:06:58.763Z,2.42
2022-11-29T03:09:36.804Z,1.75
2022-11-29T03:12:21.230Z,2.27
2022-11-29T03:15:02.630Z,1.87
2022-11-29T03:17:41.324Z,2.08
2022-11-29T03:20:22.456Z,2.02
2022-11-29T03:25:51.363Z,1.85
2022-11-29T03:28:29.518Z,2.10
2022-11-29T03:31:08.060Z,1.45
2022-11-29T03:33:49.713Z,2.20
2022-11-29T03:36:51.219Z,2.12
2022-11-29T03:39:23.719Z,2.37
2022-11-29T03:42:02.257Z,2.17
2022-11-29T03:44:37.671Z,1.95
2022-11-29T03:47:16.032Z,2.35
2022-11-29T03:49:48.524Z,1.98
2022-11-29T03:52:35.862Z,1.77
2022-11-29T03:55:11.130Z,2.12
2022-11-29T03:57:43.662Z,1.75
2022-11-29T04:00:13.706Z,2.30
2022-11-29T04:03:18.262Z,2.10
2022-11-29T04:06:14.784Z,2.35
2022-11-29T04:08:53.155Z,2.40
2022-11-29T04:11:46.870Z,1.67
2022-11-29T04:14:35.818Z,2.15
2022-11-29T04:17:32.104Z,1.90
2022-11-29T04:20:27.361Z,2.42
2022-11-29T04:23:30.068Z,2.33
2022-11-29T04:26:35.009Z,1.70
2022-11-29T04:29:31.506Z,2.30
2022-11-29T04:32:10.014Z,1.80
2022-11-29T04:35:02.198Z,2.17
2022-11-29T04:37:57.486Z,2.00
2022-11-29T04:40:35.804Z,2.02
2022-11-29T04:43:25.746Z,1.47
2022-11-29T04:46:07.356Z,2.22
2022-11-29T04:49:00.094Z,2.00
2022-11-29T04:51:56.969Z,1.80
2022-11-29T04:54:50.277Z,2.10
2022-11-29T04:57:43.738Z,2.15
2022-11-29T05:00:19.002Z,1.98
2022-11-29T05:02:51.562Z,1.75
2022-11-29T05:05:54.487Z,1.70
2022-11-29T05:08:35.774Z,1.67
2022-11-29T05:11:26.685Z,1.90
2022-11-29T05:14:03.408Z,1.98
2022-11-29T05:16:50.729Z,2.27
2022-11-29T05:19:51.804Z,1.90
2022-11-29T05:22:35.960Z,1.60
2022-11-29T05:25:23.724Z,1.95
2022-11-29T05:27:58.738Z,2.45
2022-11-29T05:30:31.303Z,2.67
2022-11-29T05:35:56.549Z,1.85
2022-11-29T05:39:02.475Z,1.80
2022-11-29T05:41:37.380Z,1.62
2022-11-29T05:44:18.670Z,1.75
2022-11-29T05:47:00.358Z,2.20
2022-11-29T05:49:52.257Z,1.75
2022-11-29T05:52:47.242Z,1.98
2022-11-29T05:55:20.316Z,2.37
2022-11-29T06:00:28.924Z,2.12
2022-11-29T06:03:04.186Z,2.22
2022-11-29T06:05:39.539Z,1.80
2022-11-29T06:08:28.514Z,2.50
2022-11-29T06:11:01.055Z,2.60
2022-11-29T06:13:53.570Z,1.90
2022-11-29T06:16:57.940Z,1.60
2022-11-29T06:19:37.558Z,2.12
2022-11-29T06:22:26.527Z,2.17
2022-11-29T06:25:32.591Z,1.77
2022-11-29T06:28:17.498Z,2.05
2022-11-29T06:31:00.696Z,1.95
2022-11-29T06:36:05.824Z,2.10
2022-11-29T06:38:35.845Z,2.12
2022-11-29T06:41:05.681Z,2.25
2022-11-29T06:43:35.341Z,2.17
2022-11-29T06:46:07.866Z,2.00
2022-11-29T06:48:50.382Z,2.17
2022-11-29T06:51:46.485Z,2.27
2022-11-29T06:54:28.038Z,2.90
2022-11-29T06:57:03.424Z,2.10
2022-11-29T06:59:56.601Z,2.17
2022-11-29T07:02:46.888Z,1.87
2022-11-29T07:05:28.447Z,1.75
2022-11-29T07:08:02.124Z,2.10
2022-11-29T07:10:34.662Z,2.60
2022-11-29T07:13:04.410Z,2.50
2022-11-29T07:15:34.170Z,2.50
2022-11-29T07:18:30.714Z,2.55
2022-11-29T07:21:18.118Z,2.30
2022-11-29T07:23:51.165Z,3.10
2022-11-29T07:29:27.696Z,2.08
2022-11-29T07:32:34.707Z,2.33
2022-11-29T07:35:07.211Z,1.82
2022-11-29T07:38:12.905Z,1.65
2022-11-29T07:41:03.616Z,1.65
2022-11-29T07:43:47.675Z,1.57
2022-11-29T07:46:17.919Z,2.08
2022-11-29T07:48:47.377Z,1.98
2022-11-29T07:51:16.898Z,1.72
2022-11-29T07:53:46.719Z,2.22
2022-11-29T07:56:18.012Z,1.52
2022-11-29T07:58:47.583Z,2.42
2022-11-29T08:01:17.088Z,1.95
2022-11-29T08:03:46.689Z,1.90
2022-11-29T08:06:16.107Z,1.70
2022-11-29T08:08:45.535Z,2.47
2022-11-29T08:11:16.226Z,2.10
2022-11-29T08:13:45.810Z,2.25
2022-11-29T08:16:19.851Z,2.40
2022-11-29T08:18:49.407Z,2.35
2022-11-29T08:21:19.077Z,2.05
2022-11-29T08:23:50.620Z,2.55
2022-11-29T08:26:24.454Z,2.52
2022-11-29T08:28:53.994Z,2.67
2022-11-29T08:31:23.507Z,2.77
2022-11-29T08:33:52.956Z,2.85
2022-11-29T08:36:22.462Z,2.58
2022-11-29T08:38:57.795Z,2.25
2022-11-29T08:41:23.246Z,2.95
2022-11-29T08:43:52.719Z,2.50
2022-11-29T08:46:22.157Z,2.70
2022-11-29T08:48:51.558Z,2.80
2022-11-29T08:51:21.069Z,3.20
2022-11-29T08:53:52.141Z,2.98
2022-11-29T08:57:10.318Z,2.55
2022-11-29T08:58:52.736Z,2.55
2022-11-29T09:01:22.298Z,3.15
2022-11-29T09:04:02.487Z,2.27
2022-11-29T09:06:35.082Z,2.70
2022-11-29T09:09:05.039Z,3.22
2022-11-29T09:11:36.126Z,4.60
2022-11-29T09:14:08.357Z,5.47
2022-11-29T09:16:39.440Z,6.27
2022-11-29T09:19:09.581Z,4.12
2022-11-29T09:21:39.012Z,2.98
2022-11-29T09:24:09.534Z,2.75
2022-11-29T09:26:40.904Z,2.95
2022-11-29T09:29:11.755Z,2.30
2022-11-29T09:31:43.462Z,2.20
2022-11-29T09:34:18.918Z,2.65
2022-11-29T09:36:48.683Z,2.83
2022-11-29T09:39:18.171Z,2.87
2022-11-29T09:42:05.949Z,2.33
2022-11-29T09:45:10.517Z,2.50
2022-11-29T09:48:14.366Z,2.37
2022-11-29T09:53:38.217Z,2.50
2022-11-29T09:56:16.568Z,2.00
2022-11-29T09:58:58.089Z,2.08
2022-11-29T10:01:43.097Z,2.33
2022-11-29T10:04:21.749Z,2.45
2022-11-29T10:06:57.299Z,2.10
2022-11-29T10:09:38.786Z,2.12
2022-11-29T10:12:21.686Z,2.20
2022-11-29T10:14:54.797Z,2.35
2022-11-29T10:17:27.296Z,1.95
2022-11-29T10:20:03.404Z,1.95
2022-11-29T10:22:35.906Z,2.15
2022-11-29T10:25:08.675Z,1.57
2022-11-29T10:27:41.343Z,1.82
2022-11-29T10:30:17.234Z,2.12
2022-11-29T10:32:49.533Z,1.80
2022-11-29T10:35:21.291Z,2.13
2022-11-29T10:38:28.621Z,1.95
2022-11-29T10:40:28.022Z,2.20
2022-11-29T10:42:59.088Z,2.08
2022-11-29T10:45:50.086Z,1.80
2022-11-29T10:48:22.062Z,1.72
2022-11-29T10:50:54.134Z,2.20
2022-11-29T10:53:26.356Z,2.00
2022-11-29T10:55:58.934Z,2.60
2022-11-29T10:58:31.170Z,1.85
2022-11-29T11:01:07.928Z,2.05
2022-11-29T11:03:40.767Z,1.90
2022-11-29T11:06:28.455Z,2.05
2022-11-29T11:09:00.938Z,1.70
2022-11-29T11:11:33.088Z,2.70
2022-11-29T11:14:24.549Z,1.67
2022-11-29T11:16:55.421Z,2.20
2022-11-29T11:19:31.818Z,2.67
2022-11-29T11:22:04.318Z,1.70
2022-11-29T11:24:43.613Z,1.90
2022-11-29T11:27:14.558Z,2.42
2022-11-29T11:29:47.596Z,1.90
2022-11-29T11:34:55.992Z,1.90
2022-11-29T11:37:31.288Z,1.90
2022-11-29T11:40:03.893Z,2.45
2022-11-29T11:42:37.415Z,2.15
2022-11-29T11:45:16.172Z,1.85
2022-11-29T11:47:49.106Z,2.75
2022-11-29T11:50:30.796Z,2.05
2022-11-29T11:53:03.374Z,2.17
2022-11-29T11:55:41.515Z,1.92
2022-11-29T11:58:16.962Z,1.77
2022-11-29T12:01:05.730Z,1.80
2022-11-29T12:03:32.474Z,2.02
2022-11-29T12:06:14.038Z,1.40
2022-11-29T12:08:46.312Z,2.02
2022-11-29T12:11:19.251Z,1.82
2022-11-29T12:13:51.731Z,2.27
2022-11-29T12:16:33.285Z,2.10
2022-11-29T12:19:15.586Z,2.35
2022-11-29T12:21:49.914Z,1.70
2022-11-29T12:24:25.386Z,1.50
2022-11-29T12:26:58.549Z,2.65
2022-11-29T12:29:31.366Z,2.02
2022-11-29T12:32:06.862Z,1.80
2022-11-29T12:34:55.985Z,2.22
2022-11-29T12:37:44.305Z,2.27
2022-11-29T12:40:33.363Z,2.27
2022-11-29T12:43:22.346Z,2.20
2022-11-29T12:46:11.323Z,2.20
2022-11-29T12:48:49.765Z,2.37
2022-11-29T12:51:41.939Z,2.62
2022-11-29T12:54:20.015Z,2.00
2022-11-29T12:56:58.248Z,2.52
2022-11-29T12:59:39.823Z,2.42
2022-11-29T13:02:15.165Z,2.77
2022-11-29T13:04:55.014Z,2.30
2022-11-29T13:07:45.139Z,2.30
2022-11-29T13:10:29.905Z,2.67
2022-11-29T13:13:17.420Z,2.10
2022-11-29T13:16:04.933Z,2.87
2022-11-29T13:18:37.570Z,3.12
2022-11-29T13:21:19.334Z,2.58
2022-11-29T13:24:10.525Z,3.85
2022-11-29T13:26:28.095Z,3.20
2022-11-29T13:28:59.810Z,3.47
2022-11-29T13:31:31.336Z,3.73
2022-11-29T13:34:29.660Z,3.58
2022-11-29T13:37:16.919Z,4.55
2022-11-29T13:39:58.160Z,3.55
2022-11-29T13:42:36.543Z,4.25
2022-11-29T13:45:21.082Z,4.25
2022-11-29T13:48:02.031Z,4.50
2022-11-29T13:50:49.329Z,3.90
2022-11-29T13:53:24.664Z,3.83
2022-11-29T13:56:02.905Z,3.42
2022-11-29T13:58:35.433Z,3.22
2022-11-29T14:01:15.853Z,3.58
2022-11-29T14:03:52.438Z,3.87
2022-11-29T14:06:37.296Z,3.27
2022-11-29T14:09:25.589Z,3.55
2022-11-29T14:12:31.279Z,3.72
2022-11-29T14:15:16.250Z,3.02
2022-11-29T14:17:54.801Z,4.10
2022-11-29T14:20:29.015Z,3.55
2022-11-29T14:23:08.836Z,3.47
2022-11-29T14:25:51.542Z,3.60
2022-11-29T14:28:17.629Z,3.53
2022-11-29T14:30:52.420Z,3.83
2022-11-29T14:33:49.187Z,3.30
2022-11-29T14:36:30.620Z,3.50
2022-11-29T14:39:20.004Z,2.90
2022-11-29T14:42:16.342Z,2.67
2022-11-29T14:44:54.715Z,2.90
2022-11-29T14:47:39.617Z,2.83
2022-11-29T14:50:11.370Z,2.72
2022-11-29T14:52:52.820Z,3.20
2022-11-29T14:55:29.770Z,3.30
2022-11-29T14:58:06.424Z,3.00
2022-11-29T15:00:50.709Z,2.70
2022-11-29T15:03:41.661Z,3.05
2022-11-29T15:06:20.062Z,2.45
2022-11-29T15:08:58.563Z,2.60
2022-11-29T15:11:37.153Z,2.42
2022-11-29T15:14:09.697Z,2.22
2022-11-29T15:16:45.190Z,2.58
2022-11-29T15:19:33.943Z,2.90
2022-11-29T15:22:07.617Z,2.87
2022-11-29T15:24:57.417Z,2.40
2022-11-29T15:27:27.643Z,2.42
2022-11-29T15:29:59.232Z,2.72
2022-11-29T15:32:32.929Z,3.40
2022-11-29T15:35:02.528Z,3.45
2022-11-29T15:37:42.885Z,3.60
2022-11-29T15:40:21.981Z,3.26
2022-11-29T15:42:54.470Z,3.37
2022-11-29T15:45:29.580Z,2.92
2022-11-29T15:48:28.364Z,3.10
2022-11-29T15:51:21.876Z,3.22
2022-11-29T15:54:13.047Z,3.25
2022-11-29T15:56:46.063Z,2.60
2022-11-29T15:59:35.545Z,2.58
2022-11-29T16:02:08.223Z,2.92
2022-11-29T16:07:10.564Z,3.40
2022-11-29T16:09:43.776Z,2.85
2022-11-29T16:12:16.301Z,3.60
2022-11-29T16:14:56.510Z,2.85
2022-11-29T16:17:32.000Z,3.47
2022-11-29T16:20:19.936Z,3.30
2022-11-29T16:23:04.641Z,3.15
2022-11-29T16:25:37.749Z,3.12
2022-11-29T16:28:09.272Z,3.37
2022-11-29T16:30:42.648Z,3.65
2022-11-29T16:33:15.237Z,4.20
2022-11-29T16:35:44.753Z,3.75
2022-11-29T16:38:19.886Z,3.62
2022-11-29T16:41:10.570Z,4.08
2022-11-29T16:43:55.186Z,4.50
2022-11-29T16:46:27.757Z,3.97
2022-11-29T16:49:01.370Z,3.98
2022-11-29T16:51:39.889Z,3.52
2022-11-29T16:54:22.363Z,4.92
2022-11-29T16:56:57.327Z,4.70
2022-11-29T16:59:28.603Z,4.42
2022-11-29T17:01:59.060Z,3.40
2022-11-29T17:04:28.583Z,4.37
2022-11-29T17:07:00.145Z,4.35
2022-11-29T17:09:33.238Z,4.00
2022-11-29T17:12:04.233Z,4.03
2022-11-29T17:14:33.890Z,4.15
2022-11-29T17:17:03.596Z,4.05
2022-11-29T17:19:33.368Z,4.73
2022-11-29T17:22:03.087Z,5.35
2022-11-29T17:24:32.834Z,5.35
2022-11-29T17:27:02.505Z,5.35
2022-11-29T17:29:32.029Z,4.42
2022-11-29T17:32:01.646Z,5.10
2022-11-29T17:34:31.195Z,4.97
2022-11-29T17:37:00.697Z,5.75
2022-11-29T17:39:30.329Z,5.45
2022-11-29T17:41:59.947Z,5.20
2022-11-29T17:44:29.378Z,5.00
2022-11-29T17:46:58.869Z,5.30
2022-11-29T17:49:28.330Z,5.37
2022-11-29T17:51:57.874Z,5.37
2022-11-29T17:54:27.315Z,5.30
2022-11-29T17:56:56.832Z,6.00
2022-11-29T17:59:26.445Z,6.37
2022-11-29T18:01:56.069Z,6.92
2022-11-29T18:04:25.629Z,6.70
2022-11-29T18:06:55.329Z,9.58
2022-11-29T18:09:24.865Z,9.83
2022-11-29T18:11:54.354Z,12.33
2022-11-29T18:16:55.872Z,15.60
2022-11-29T18:19:25.514Z,17.13
2022-11-29T18:21:55.050Z,15.55
2022-11-29T18:24:24.552Z,16.12
2022-11-29T18:26:56.932Z,15.63
2022-11-29T18:29:26.441Z,15.63
2022-11-29T18:31:55.867Z,12.88
2022-11-29T18:34:25.327Z,13.70
2022-11-29T18:36:54.760Z,14.28
2022-11-29T18:39:25.915Z,15.60
2022-11-29T18:41:55.343Z,13.80
2022-11-29T18:44:26.493Z,15.93
2022-11-29T18:46:57.265Z,14.20
2022-11-29T18:49:26.799Z,14.97
2022-11-29T18:51:56.302Z,16.25
2022-11-29T18:54:25.793Z,14.90
2022-11-29T18:56:55.268Z,15.15
2022-11-29T18:59:24.690Z,18.05
2022-11-29T19:01:54.164Z,18.40
2022-11-29T19:04:23.830Z,16.53
2022-11-29T19:06:53.259Z,17.87
2022-11-29T19:09:23.884Z,16.15
2022-11-29T19:11:53.375Z,16.93
2022-11-29T19:14:22.813Z,17.32
2022-11-29T19:16:52.246Z,18.52
2022-11-29T19:19:21.686Z,19.55
2022-11-29T19:21:51.121Z,19.05
2022-11-29T19:24:20.712Z,18.60
2022-11-29T19:26:53.671Z,20.37
2022-11-29T19:29:23.243Z,19.12
2022-11-29T19:31:52.669Z,18.70
2022-11-29T19:34:22.133Z,20.05
2022-11-29T19:36:51.596Z,19.17
2022-11-29T19:39:20.999Z,20.40
2022-11-29T19:41:50.642Z,22.00
2022-11-29T19:44:22.046Z,21.27
2022-11-29T19:46:51.302Z,21.48
2022-11-29T19:49:20.739Z,22.22
2022-11-29T19:51:50.161Z,22.27
2022-11-29T19:54:19.606Z,22.17
2022-11-29T19:56:49.176Z,24.50
2022-11-29T19:59:18.746Z,25.43
2022-11-29T20:01:48.205Z,33.25
2022-11-29T20:04:17.859Z,40.38
2022-11-29T20:06:47.556Z,46.77
2022-11-29T20:09:17.169Z,51.05
2022-11-29T20:11:46.657Z,55.00
2022-11-29T20:14:17.355Z,51.65
2022-11-29T20:16:46.917Z,54.18
2022-11-29T20:19:18.680Z,50.48
2022-11-29T20:21:50.061Z,48.75
2022-11-29T20:24:19.574Z,47.95
2022-11-29T20:26:50.651Z,40.92
2022-11-29T20:29:21.789Z,40.23
2022-11-29T20:31:51.553Z,44.30
2022-11-29T20:34:22.439Z,48.87
2022-11-29T20:37:05.747Z,50.23
2022-11-29T20:39:44.530Z,50.10
2022-11-29T20:42:34.174Z,49.93
2022-11-29T20:45:06.774Z,53.83
2022-11-29T20:47:45.256Z,43.40
2022-11-29T20:50:23.559Z,39.18
2022-11-29T20:53:06.493Z,42.15
2022-11-29T20:55:37.647Z,43.50
2022-11-29T20:58:08.006Z,41.95
2022-11-29T21:00:37.431Z,38.17
2022-11-29T21:03:06.934Z,41.68
2022-11-29T21:05:39.395Z,45.73
2022-11-29T21:10:37.633Z,74.37
2022-11-29T21:13:07.546Z,65.35
2022-11-29T21:15:37.213Z,57.23
2022-11-29T21:18:07.033Z,65.65
2022-11-29T21:20:36.622Z,58.60
2022-11-29T21:23:21.125Z,61.20
2022-11-29T21:25:56.583Z,62.80
2022-11-29T21:28:31.855Z,61.65
2022-11-29T21:31:01.704Z,57.17
2022-11-29T21:33:31.681Z,51.33
2022-11-29T21:36:02.401Z,48.45
2022-11-29T21:38:31.837Z,48.70
2022-11-29T21:41:01.342Z,50.25
2022-11-29T21:44:04.264Z,50.55
2022-11-29T21:46:02.006Z,49.55
2022-11-29T21:48:38.379Z,45.03
2022-11-29T21:51:09.377Z,46.53
2022-11-29T21:53:40.830Z,43.42
2022-11-29T21:56:12.362Z,38.08
2022-11-29T21:58:41.847Z,37.67
2022-11-29T22:01:17.418Z,38.65
2022-11-29T22:03:48.715Z,40.10
2022-11-29T22:06:20.490Z,39.83
2022-11-29T22:08:50.126Z,38.07
2022-11-29T22:11:32.147Z,41.13
2022-11-29T22:14:14.126Z,43.43
2022-11-29T22:16:49.010Z,41.68
2022-11-29T22:19:23.830Z,38.73
2022-11-29T22:21:55.451Z,35.92
2022-11-29T22:24:27.397Z,40.47
2022-11-29T22:26:59.722Z,42.03
2022-11-29T22:31:59.515Z,41.85
2022-11-29T22:34:30.083Z,41.58
2022-11-29T22:36:59.694Z,38.75
2022-11-29T22:39:29.124Z,36.28
2022-11-29T22:41:58.547Z,38.95
2022-11-29T22:44:28.095Z,39.65
2022-11-29T22:46:57.724Z,40.33
2022-11-29T22:49:27.289Z,36.77
2022-11-29T22:51:56.768Z,38.00
2022-11-29T22:54:26.202Z,38.75
2022-11-29T22:56:56.354Z,40.03
2022-11-29T22:59:25.783Z,42.90
2022-11-29T23:01:55.240Z,47.00
2022-11-29T23:04:25.079Z,47.88
2022-11-29T23:06:55.399Z,44.42
2022-11-29T23:09:24.831Z,41.98
2022-11-29T23:11:56.530Z,46.25
2022-11-29T23:14:26.488Z,47.50
2022-11-29T23:16:56.039Z,47.60
2022-11-29T23:19:25.537Z,45.50
2022-11-29T23:21:56.662Z,45.35
2022-11-29T23:24:26.471Z,49.88
2022-11-29T23:26:55.958Z,54.67
2022-11-29T23:29:25.403Z,52.80
2022-11-29T23:31:55.076Z,56.57
2022-11-29T23:34:24.602Z,49.88
2022-11-29T23:36:54.110Z,47.20
2022-11-29T23:39:23.592Z,39.48
2022-11-29T23:41:53.029Z,37.73
2022-11-29T23:44:22.454Z,35.90
2022-11-29T23:46:51.952Z,34.33
2022-11-29T23:49:21.380Z,34.43
2022-11-29T23:51:50.815Z,37.50
2022-11-29T23:54:20.281Z,36.80
2022-11-29T23:56:49.716Z,35.13
2022-11-29T23:59:20.613Z,35.70
